Terminal Aerodrome Forecast
Issued by NWS Melbourne, FL

Current Version | Previous Version | Text Only | Print | Product List | Glossary On
Versions: 1 2 3 4 5 6 7 8 9 10 11 12
000
FTUS42 KMLB 022300 RRA
TAFMLB
TAF
KMLB 022342Z 0300/0324 11009KT P6SM FEW030 SCT250
     FM030300 13005KT P6SM FEW030 SCT250
     FM031400 10008KT P6SM SCT030 SCT250=

USA.gov is the U.S. government's official web portal to all federal, state and local government web resources and services.